sensor_id;sensor_type;location;lat;lon;timestamp;pressure;altitude;pressure_sealevel;temperature;humidity
53340;BME280;46212;50.258;19.062;2023-05-22T00:01:54;98689.81;;;13.45;65.80
53340;BME280;46212;50.258;19.062;2023-05-22T00:04:20;98691.53;;;13.42;65.89
53340;BME280;46212;50.258;19.062;2023-05-22T00:06:46;98689.81;;;13.45;65.46
53340;BME280;46212;50.258;19.062;2023-05-22T00:09:12;98687.53;;;13.43;65.41
53340;BME280;46212;50.258;19.062;2023-05-22T00:11:38;98682.81;;;13.35;65.23
53340;BME280;46212;50.258;19.062;2023-05-22T00:14:04;98680.56;;;13.24;65.17
53340;BME280;46212;50.258;19.062;2023-05-22T00:16:29;98678.91;;;13.17;65.35
53340;BME280;46212;50.258;19.062;2023-05-22T00:18:55;98687.28;;;13.08;65.63
53340;BME280;46212;50.258;19.062;2023-05-22T00:21:21;98688.53;;;12.98;65.89
53340;BME280;46212;50.258;19.062;2023-05-22T00:23:48;98683.09;;;13.04;65.66
53340;BME280;46212;50.258;19.062;2023-05-22T00:26:14;98681.94;;;12.96;65.33
53340;BME280;46212;50.258;19.062;2023-05-22T00:28:43;98671.00;;;12.92;65.53
53340;BME280;46212;50.258;19.062;2023-05-22T00:31:08;98668.13;;;12.87;65.26
53340;BME280;46212;50.258;19.062;2023-05-22T00:33:33;98672.25;;;12.91;65.54
53340;BME280;46212;50.258;19.062;2023-05-22T00:35:59;98668.28;;;12.83;65.15
53340;BME280;46212;50.258;19.062;2023-05-22T00:38:34;98669.72;;;12.69;65.58
53340;BME280;46212;50.258;19.062;2023-05-22T00:41:03;98665.25;;;12.72;65.49
53340;BME280;46212;50.258;19.062;2023-05-22T00:43:29;98662.75;;;12.83;65.61
53340;BME280;46212;50.258;19.062;2023-05-22T00:45:55;98665.56;;;12.74;65.78
53340;BME280;46212;50.258;19.062;2023-05-22T00:48:21;98666.72;;;12.58;66.21
53340;BME280;46212;50.258;19.062;2023-05-22T00:50:48;98657.94;;;12.51;66.17
53340;BME280;46212;50.258;19.062;2023-05-22T00:53:14;98661.03;;;12.44;66.48
53340;BME280;46212;50.258;19.062;2023-05-22T00:55:40;98668.72;;;12.58;65.83
53340;BME280;46212;50.258;19.062;2023-05-22T00:58:13;98657.00;;;12.54;66.01
53340;BME280;46212;50.258;19.062;2023-05-22T01:00:40;98657.00;;;12.54;66.00
53340;BME280;46212;50.258;19.062;2023-05-22T01:03:09;98658.06;;;12.56;65.70
53340;BME280;46212;50.258;19.062;2023-05-22T01:05:36;98665.38;;;12.45;65.88
53340;BME280;46212;50.258;19.062;2023-05-22T01:08:03;98654.47;;;12.32;66.02
53340;BME280;46212;50.258;19.062;2023-05-22T01:10:29;98654.94;;;12.31;66.10
53340;BME280;46212;50.258;19.062;2023-05-22T01:13:44;98653.91;;;12.19;66.58
53340;BME280;46212;50.258;19.062;2023-05-22T01:16:11;98652.81;;;12.25;66.35
53340;BME280;46212;50.258;19.062;2023-05-22T01:18:49;98656.06;;;12.15;67.02
53340;BME280;46212;50.258;19.062;2023-05-22T01:21:39;98649.84;;;12.38;66.42
53340;BME280;46212;50.258;19.062;2023-05-22T01:24:37;98645.69;;;12.43;66.38
53340;BME280;46212;50.258;19.062;2023-05-22T01:29:47;98644.53;;;12.16;67.19
53340;BME280;46212;50.258;19.062;2023-05-22T01:32:19;98646.19;;;12.23;66.96
53340;BME280;46212;50.258;19.062;2023-05-22T01:34:51;98644.69;;;12.13;67.21
53340;BME280;46212;50.258;19.062;2023-05-22T01:37:19;98648.84;;;12.08;67.23
53340;BME280;46212;50.258;19.062;2023-05-22T01:39:46;98646.09;;;11.99;67.53
53340;BME280;46212;50.258;19.062;2023-05-22T01:42:12;98643.03;;;11.88;68.06
53340;BME280;46212;50.258;19.062;2023-05-22T01:44:37;98644.56;;;11.80;68.48
53340;BME280;46212;50.258;19.062;2023-05-22T01:47:03;98639.81;;;11.81;68.66
53340;BME280;46212;50.258;19.062;2023-05-22T01:49:32;98645.81;;;11.88;68.13
53340;BME280;46212;50.258;19.062;2023-05-22T01:52:10;98639.69;;;11.75;68.22
53340;BME280;46212;50.258;19.062;2023-05-22T01:54:54;98643.06;;;11.70;68.67
53340;BME280;46212;50.258;19.062;2023-05-22T01:57:33;98644.13;;;11.63;68.86
53340;BME280;46212;50.258;19.062;2023-05-22T02:00:08;98639.19;;;11.49;69.78
53340;BME280;46212;50.258;19.062;2023-05-22T02:02:38;98646.41;;;11.65;69.34
53340;BME280;46212;50.258;19.062;2023-05-22T02:05:09;98649.66;;;11.63;69.59
53340;BME280;46212;50.258;19.062;2023-05-22T02:07:39;98634.91;;;11.66;69.43
53340;BME280;46212;50.258;19.062;2023-05-22T02:10:07;98643.06;;;11.70;68.98
53340;BME280;46212;50.258;19.062;2023-05-22T02:12:34;98648.91;;;11.72;68.57
53340;BME280;46212;50.258;19.062;2023-05-22T02:15:00;98645.94;;;11.48;69.42
53340;BME280;46212;50.258;19.062;2023-05-22T02:17:26;98642.72;;;11.41;70.01
53340;BME280;46212;50.258;19.062;2023-05-22T02:19:51;98642.41;;;11.30;70.59
53340;BME280;46212;50.258;19.062;2023-05-22T02:22:17;98641.63;;;11.29;70.71
53340;BME280;46212;50.258;19.062;2023-05-22T02:24:46;98629.81;;;11.29;70.73
53340;BME280;46212;50.258;19.062;2023-05-22T02:27:11;98632.13;;;11.30;71.08
53340;BME280;46212;50.258;19.062;2023-05-22T02:29:37;98635.50;;;11.34;70.82
53340;BME280;46212;50.258;19.062;2023-05-22T02:32:03;98641.34;;;11.45;70.22
53340;BME280;46212;50.258;19.062;2023-05-22T02:34:29;98633.97;;;11.42;70.46
53340;BME280;46212;50.258;19.062;2023-05-22T02:36:57;98639.63;;;11.20;71.56
53340;BME280;46212;50.258;19.062;2023-05-22T02:39:24;98641.19;;;11.31;71.55
53340;BME280;46212;50.258;19.062;2023-05-22T02:41:50;98623.66;;;11.15;71.88
53340;BME280;46212;50.258;19.062;2023-05-22T02:44:15;98631.19;;;11.06;72.37
53340;BME280;46212;50.258;19.062;2023-05-22T02:46:40;98630.25;;;11.00;72.84
53340;BME280;46212;50.258;19.062;2023-05-22T02:49:06;98636.38;;;11.04;72.79
53340;BME280;46212;50.258;19.062;2023-05-22T02:51:31;98631.63;;;11.13;71.90
53340;BME280;46212;50.258;19.062;2023-05-22T02:53:57;98625.66;;;11.06;72.25
53340;BME280;46212;50.258;19.062;2023-05-22T02:56:22;98637.34;;;11.19;71.50
53340;BME280;46212;50.258;19.062;2023-05-22T02:58:48;98634.41;;;11.13;71.58
53340;BME280;46212;50.258;19.062;2023-05-22T03:01:13;98641.91;;;11.04;71.85
53340;BME280;46212;50.258;19.062;2023-05-22T03:03:39;98631.63;;;11.04;71.49
53340;BME280;46212;50.258;19.062;2023-05-22T03:06:05;98635.31;;;11.01;71.48
53340;BME280;46212;50.258;19.062;2023-05-22T03:08:33;98633.16;;;10.96;71.49
53340;BME280;46212;50.258;19.062;2023-05-22T03:10:59;98637.91;;;10.96;71.90
53340;BME280;46212;50.258;19.062;2023-05-22T03:13:24;98630.81;;;10.86;73.41
53340;BME280;46212;50.258;19.062;2023-05-22T03:15:50;98632.81;;;10.85;73.71
53340;BME280;46212;50.258;19.062;2023-05-22T03:18:16;98646.06;;;10.99;73.28
53340;BME280;46212;50.258;19.062;2023-05-22T03:20:41;98642.69;;;11.04;73.17
53340;BME280;46212;50.258;19.062;2023-05-22T03:23:07;98638.56;;;11.18;72.60
53340;BME280;46212;50.258;19.062;2023-05-22T03:25:32;98639.50;;;11.24;71.83
53340;BME280;46212;50.258;19.062;2023-05-22T03:27:58;98635.03;;;11.27;71.69
53340;BME280;46212;50.258;19.062;2023-05-22T03:30:23;98640.09;;;11.19;72.11
53340;BME280;46212;50.258;19.062;2023-05-22T03:32:48;98625.03;;;11.20;71.59
53340;BME280;46212;50.258;19.062;2023-05-22T03:35:14;98635.66;;;11.22;72.01
53340;BME280;46212;50.258;19.062;2023-05-22T03:37:44;98631.03;;;11.18;72.70
53340;BME280;46212;50.258;19.062;2023-05-22T03:40:10;98630.41;;;11.14;72.80
53340;BME280;46212;50.258;19.062;2023-05-22T03:42:36;98622.59;;;11.22;72.24
53340;BME280;46212;50.258;19.062;2023-05-22T03:45:01;98630.28;;;11.27;72.25
53340;BME280;46212;50.258;19.062;2023-05-22T03:47:26;98626.72;;;11.27;71.90
53340;BME280;46212;50.258;19.062;2023-05-22T03:49:52;98633.03;;;11.45;71.28
53340;BME280;46212;50.258;19.062;2023-05-22T03:52:17;98638.72;;;11.33;71.77
53340;BME280;46212;50.258;19.062;2023-05-22T03:54:43;98630.28;;;11.45;71.17
53340;BME280;46212;50.258;19.062;2023-05-22T03:57:08;98635.50;;;11.52;70.84
53340;BME280;46212;50.258;19.062;2023-05-22T03:59:33;98645.03;;;11.51;70.77
53340;BME280;46212;50.258;19.062;2023-05-22T04:01:59;98647.78;;;11.51;70.33
53340;BME280;46212;50.258;19.062;2023-05-22T04:04:28;98644.28;;;11.51;70.09
53340;BME280;46212;50.258;19.062;2023-05-22T04:06:54;98648.72;;;11.48;69.96
53340;BME280;46212;50.258;19.062;2023-05-22T04:09:24;98650.09;;;11.53;69.90
53340;BME280;46212;50.258;19.062;2023-05-22T04:11:50;98641.97;;;11.58;69.85
53340;BME280;46212;50.258;19.062;2023-05-22T04:14:17;98646.25;;;11.68;69.53
53340;BME280;46212;50.258;19.062;2023-05-22T04:16:42;98646.59;;;11.70;69.31
53340;BME280;46212;50.258;19.062;2023-05-22T04:19:08;98642.41;;;11.66;69.26
53340;BME280;46212;50.258;19.062;2023-05-22T04:21:33;98649.69;;;11.73;69.27
53340;BME280;46212;50.258;19.062;2023-05-22T04:24:00;98646.41;;;11.83;69.01
53340;BME280;46212;50.258;19.062;2023-05-22T04:26:26;98639.66;;;11.84;68.82
53340;BME280;46212;50.258;19.062;2023-05-22T04:28:54;98643.34;;;11.90;68.32
53340;BME280;46212;50.258;19.062;2023-05-22T04:31:19;98631.06;;;11.91;68.85
53340;BME280;46212;50.258;19.062;2023-05-22T04:33:47;98628.41;;;11.97;68.57
53340;BME280;46212;50.258;19.062;2023-05-22T04:36:14;98627.31;;;12.12;67.96
53340;BME280;46212;50.258;19.062;2023-05-22T04:38:39;98631.75;;;12.19;68.01
53340;BME280;46212;50.258;19.062;2023-05-22T04:41:05;98633.56;;;12.31;67.45
53340;BME280;46212;50.258;19.062;2023-05-22T04:43:33;98632.78;;;12.40;67.51
53340;BME280;46212;50.258;19.062;2023-05-22T04:45:58;98635.34;;;12.43;67.25
53340;BME280;46212;50.258;19.062;2023-05-22T04:48:24;98632.72;;;12.49;67.06
53340;BME280;46212;50.258;19.062;2023-05-22T04:50:50;98623.47;;;12.52;66.83
53340;BME280;46212;50.258;19.062;2023-05-22T04:53:16;98630.09;;;12.78;66.71
53340;BME280;46212;50.258;19.062;2023-05-22T04:55:42;98623.66;;;13.05;65.16
53340;BME280;46212;50.258;19.062;2023-05-22T04:58:07;98622.84;;;13.13;65.12
53340;BME280;46212;50.258;19.062;2023-05-22T05:00:33;98636.84;;;13.19;64.43
53340;BME280;46212;50.258;19.062;2023-05-22T05:02:59;98637.41;;;13.23;64.76
53340;BME280;46212;50.258;19.062;2023-05-22T05:05:25;98632.94;;;13.25;64.72
53340;BME280;46212;50.258;19.062;2023-05-22T05:07:50;98636.06;;;13.42;64.16
53340;BME280;46212;50.258;19.062;2023-05-22T05:10:16;98629.63;;;13.74;63.20
53340;BME280;46212;50.258;19.062;2023-05-22T05:12:42;98628.66;;;13.77;63.46
53340;BME280;46212;50.258;19.062;2023-05-22T05:15:08;98637.09;;;13.83;63.46
53340;BME280;46212;50.258;19.062;2023-05-22T05:17:33;98627.22;;;14.11;61.96
53340;BME280;46212;50.258;19.062;2023-05-22T05:19:59;98629.53;;;14.13;62.21
53340;BME280;46212;50.258;19.062;2023-05-22T05:22:24;98634.94;;;14.46;60.59
53340;BME280;46212;50.258;19.062;2023-05-22T05:24:50;98635.38;;;14.59;60.68
53340;BME280;46212;50.258;19.062;2023-05-22T05:27:15;98639.09;;;14.70;59.32
53340;BME280;46212;50.258;19.062;2023-05-22T05:29:41;98642.03;;;14.81;59.34
53340;BME280;46212;50.258;19.062;2023-05-22T05:32:06;98644.00;;;14.96;59.10
53340;BME280;46212;50.258;19.062;2023-05-22T05:34:32;98642.00;;;14.96;58.50
53340;BME280;46212;50.258;19.062;2023-05-22T05:36:57;98642.78;;;14.97;57.84
53340;BME280;46212;50.258;19.062;2023-05-22T05:39:23;98642.06;;;15.02;57.86
53340;BME280;46212;50.258;19.062;2023-05-22T05:41:49;98636.25;;;15.00;58.15
53340;BME280;46212;50.258;19.062;2023-05-22T05:44:14;98642.13;;;14.87;59.27
53340;BME280;46212;50.258;19.062;2023-05-22T05:46:40;98635.28;;;14.88;59.12
53340;BME280;46212;50.258;19.062;2023-05-22T05:49:09;98639.28;;;15.02;59.22
53340;BME280;46212;50.258;19.062;2023-05-22T05:51:35;98638.03;;;15.23;58.76
53340;BME280;46212;50.258;19.062;2023-05-22T05:54:01;98630.13;;;15.36;57.81
53340;BME280;46212;50.258;19.062;2023-05-22T05:56:26;98632.28;;;15.26;58.21
53340;BME280;46212;50.258;19.062;2023-05-22T05:58:52;98633.13;;;15.53;57.15
53340;BME280;46212;50.258;19.062;2023-05-22T06:01:17;98634.31;;;15.66;56.69
53340;BME280;46212;50.258;19.062;2023-05-22T06:03:43;98632.97;;;15.82;54.87
53340;BME280;46212;50.258;19.062;2023-05-22T06:06:08;98625.47;;;15.93;55.49
53340;BME280;46212;50.258;19.062;2023-05-22T06:08:34;98626.56;;;16.02;55.51
53340;BME280;46212;50.258;19.062;2023-05-22T06:11:00;98620.28;;;16.07;55.58
53340;BME280;46212;50.258;19.062;2023-05-22T06:13:26;98624.38;;;16.11;54.98
53340;BME280;46212;50.258;19.062;2023-05-22T06:15:51;98630.00;;;16.17;55.01
53340;BME280;46212;50.258;19.062;2023-05-22T06:18:16;98616.53;;;16.41;55.07
53340;BME280;46212;50.258;19.062;2023-05-22T06:20:42;98621.31;;;16.66;52.72
53340;BME280;46212;50.258;19.062;2023-05-22T06:23:07;98623.41;;;16.77;52.09
53340;BME280;46212;50.258;19.062;2023-05-22T06:25:32;98610.50;;;16.79;51.88
53340;BME280;46212;50.258;19.062;2023-05-22T06:27:58;98617.44;;;16.95;52.68
53340;BME280;46212;50.258;19.062;2023-05-22T06:30:25;98617.78;;;17.14;51.25
53340;BME280;46212;50.258;19.062;2023-05-22T06:32:51;98614.78;;;17.28;51.53
53340;BME280;46212;50.258;19.062;2023-05-22T06:35:17;98624.25;;;17.42;49.80
53340;BME280;46212;50.258;19.062;2023-05-22T06:37:42;98615.88;;;17.47;50.10
53340;BME280;46212;50.258;19.062;2023-05-22T06:40:08;98612.63;;;17.54;50.23
53340;BME280;46212;50.258;19.062;2023-05-22T06:42:34;98615.19;;;17.58;49.45
53340;BME280;46212;50.258;19.062;2023-05-22T06:44:59;98613.47;;;17.77;49.02
53340;BME280;46212;50.258;19.062;2023-05-22T06:47:25;98614.53;;;17.96;47.05
53340;BME280;46212;50.258;19.062;2023-05-22T06:49:50;98624.44;;;18.09;47.18
53340;BME280;46212;50.258;19.062;2023-05-22T06:52:16;98616.84;;;18.26;46.45
53340;BME280;46212;50.258;19.062;2023-05-22T06:54:41;98612.78;;;18.38;45.70
53340;BME280;46212;50.258;19.062;2023-05-22T06:57:08;98612.28;;;18.45;46.39
53340;BME280;46212;50.258;19.062;2023-05-22T06:59:34;98614.81;;;18.48;46.89
53340;BME280;46212;50.258;19.062;2023-05-22T07:01:59;98618.41;;;18.60;45.83
53340;BME280;46212;50.258;19.062;2023-05-22T07:04:24;98618.63;;;18.79;43.22
53340;BME280;46212;50.258;19.062;2023-05-22T07:06:50;98619.38;;;18.85;43.62
53340;BME280;46212;50.258;19.062;2023-05-22T07:09:18;98612.22;;;19.00;42.44
53340;BME280;46212;50.258;19.062;2023-05-22T07:11:44;98612.47;;;19.08;43.07
53340;BME280;46212;50.258;19.062;2023-05-22T07:14:10;98612.47;;;19.08;44.75
53340;BME280;46212;50.258;19.062;2023-05-22T07:16:37;98613.44;;;19.16;43.54
53340;BME280;46212;50.258;19.062;2023-05-22T07:19:02;98608.06;;;19.29;42.85
53340;BME280;46212;50.258;19.062;2023-05-22T07:21:28;98615.69;;;19.29;41.91
53340;BME280;46212;50.258;19.062;2023-05-22T07:23:56;98617.97;;;19.30;42.37
53340;BME280;46212;50.258;19.062;2023-05-22T07:26:21;98607.53;;;19.36;42.82
53340;BME280;46212;50.258;19.062;2023-05-22T07:28:47;98605.97;;;19.46;43.26
53340;BME280;46212;50.258;19.062;2023-05-22T07:31:12;98609.25;;;19.50;42.36
53340;BME280;46212;50.258;19.062;2023-05-22T07:33:38;98617.19;;;19.46;41.25
53340;BME280;46212;50.258;19.062;2023-05-22T07:36:03;98607.75;;;19.44;41.85
53340;BME280;46212;50.258;19.062;2023-05-22T07:38:29;98610.56;;;19.38;41.88
53340;BME280;46212;50.258;19.062;2023-05-22T07:40:54;98605.97;;;19.46;42.96
53340;BME280;46212;50.258;19.062;2023-05-22T07:43:20;98610.28;;;19.47;43.07
53340;BME280;46212;50.258;19.062;2023-05-22T07:45:46;98612.81;;;19.51;43.49
53340;BME280;46212;50.258;19.062;2023-05-22T07:48:11;98608.47;;;19.55;41.67
53340;BME280;46212;50.258;19.062;2023-05-22T07:50:36;98611.75;;;19.65;39.80
53340;BME280;46212;50.258;19.062;2023-05-22T07:53:02;98607.38;;;19.70;39.88
53340;BME280;46212;50.258;19.062;2023-05-22T07:55:28;98608.34;;;19.78;39.11
53340;BME280;46212;50.258;19.062;2023-05-22T07:57:54;98606.53;;;19.86;37.12
53340;BME280;46212;50.258;19.062;2023-05-22T08:00:20;98610.31;;;19.94;37.64
53340;BME280;46212;50.258;19.062;2023-05-22T08:02:46;98600.09;;;19.96;38.07
53340;BME280;46212;50.258;19.062;2023-05-22T08:05:11;98601.03;;;20.04;36.94
53340;BME280;46212;50.258;19.062;2023-05-22T08:07:36;98605.59;;;20.13;36.90
53340;BME280;46212;50.258;19.062;2023-05-22T08:10:06;98600.22;;;20.15;38.63
53340;BME280;46212;50.258;19.062;2023-05-22T08:12:32;98598.59;;;20.31;36.65
53340;BME280;46212;50.258;19.062;2023-05-22T08:14:57;98599.84;;;20.35;35.31
53340;BME280;46212;50.258;19.062;2023-05-22T08:17:22;98602.53;;;20.46;38.02
53340;BME280;46212;50.258;19.062;2023-05-22T08:19:48;98607.34;;;20.51;35.04
53340;BME280;46212;50.258;19.062;2023-05-22T08:22:13;98604.53;;;20.51;37.53
53340;BME280;46212;50.258;19.062;2023-05-22T08:24:38;98608.34;;;20.54;36.58
53340;BME280;46212;50.258;19.062;2023-05-22T08:27:04;98602.38;;;20.63;35.45
53340;BME280;46212;50.258;19.062;2023-05-22T08:29:29;98608.75;;;20.63;36.58
53340;BME280;46212;50.258;19.062;2023-05-22T08:31:55;98601.28;;;20.72;35.54
53340;BME280;46212;50.258;19.062;2023-05-22T08:34:23;98598.66;;;20.79;36.50
53340;BME280;46212;50.258;19.062;2023-05-22T08:36:48;98592.97;;;20.85;34.86
53340;BME280;46212;50.258;19.062;2023-05-22T08:39:14;98601.63;;;20.87;35.21
53340;BME280;46212;50.258;19.062;2023-05-22T08:41:39;98596.50;;;20.91;35.54
53340;BME280;46212;50.258;19.062;2023-05-22T08:44:07;98592.13;;;20.95;36.49
53340;BME280;46212;50.258;19.062;2023-05-22T08:46:33;98585.16;;;21.02;34.45
53340;BME280;46212;50.258;19.062;2023-05-22T08:49:03;98594.78;;;21.06;34.61
53340;BME280;46212;50.258;19.062;2023-05-22T08:51:32;98590.19;;;21.09;37.16
53340;BME280;46212;50.258;19.062;2023-05-22T08:53:58;98589.38;;;21.14;35.42
53340;BME280;46212;50.258;19.062;2023-05-22T08:56:25;98593.16;;;21.16;35.27
53340;BME280;46212;50.258;19.062;2023-05-22T08:58:51;98589.78;;;21.24;34.19
53340;BME280;46212;50.258;19.062;2023-05-22T09:01:18;98582.63;;;21.23;34.92
53340;BME280;46212;50.258;19.062;2023-05-22T09:03:44;98585.84;;;21.32;35.15
53340;BME280;46212;50.258;19.062;2023-05-22T09:06:13;98595.19;;;21.40;34.79
53340;BME280;46212;50.258;19.062;2023-05-22T09:08:39;98582.50;;;21.34;34.45
53340;BME280;46212;50.258;19.062;2023-05-22T09:11:06;98577.09;;;21.36;34.80
53340;BME280;46212;50.258;19.062;2023-05-22T09:13:32;98577.63;;;21.34;32.79
53340;BME280;46212;50.258;19.062;2023-05-22T09:15:58;98576.34;;;21.35;34.39
53340;BME280;46212;50.258;19.062;2023-05-22T09:18:27;98581.16;;;21.40;35.23
53340;BME280;46212;50.258;19.062;2023-05-22T09:20:56;98571.19;;;21.39;34.26
53340;BME280;46212;50.258;19.062;2023-05-22T09:23:22;98578.72;;;21.50;35.84
53340;BME280;46212;50.258;19.062;2023-05-22T09:25:53;98582.66;;;21.60;34.06
53340;BME280;46212;50.258;19.062;2023-05-22T09:28:19;98583.66;;;21.62;34.31
53340;BME280;46212;50.258;19.062;2023-05-22T09:30:53;98570.28;;;21.68;33.16
53340;BME280;46212;50.258;19.062;2023-05-22T09:33:19;98561.56;;;21.72;33.39
53340;BME280;46212;50.258;19.062;2023-05-22T09:35:51;98567.19;;;21.72;32.96
53340;BME280;46212;50.258;19.062;2023-05-22T09:38:17;98573.19;;;21.82;32.77
53340;BME280;46212;50.258;19.062;2023-05-22T09:40:42;98568.75;;;21.86;32.62
53340;BME280;46212;50.258;19.062;2023-05-22T09:43:10;98568.94;;;21.94;32.24
53340;BME280;46212;50.258;19.062;2023-05-22T09:45:37;98559.84;;;22.01;32.48
53340;BME280;46212;50.258;19.062;2023-05-22T09:48:07;98555.22;;;22.03;32.29
53340;BME280;46212;50.258;19.062;2023-05-22T09:50:32;98565.53;;;22.14;32.66
53340;BME280;46212;50.258;19.062;2023-05-22T09:53:02;98566.84;;;22.13;31.91
53340;BME280;46212;50.258;19.062;2023-05-22T09:55:28;98573.97;;;22.14;32.33
53340;BME280;46212;50.258;19.062;2023-05-22T09:57:54;98567.72;;;22.21;32.51
53340;BME280;46212;50.258;19.062;2023-05-22T10:00:21;98551.50;;;22.27;32.33
53340;BME280;46212;50.258;19.062;2023-05-22T10:02:52;98555.97;;;22.36;32.19
53340;BME280;46212;50.258;19.062;2023-05-22T10:05:19;98562.47;;;22.44;31.19
53340;BME280;46212;50.258;19.062;2023-05-22T10:07:53;98562.94;;;22.48;31.83
53340;BME280;46212;50.258;19.062;2023-05-22T10:10:20;98556.78;;;22.62;31.88
53340;BME280;46212;50.258;19.062;2023-05-22T10:13:00;98558.44;;;22.71;30.88
53340;BME280;46212;50.258;19.062;2023-05-22T10:15:27;98554.09;;;22.96;32.88
53340;BME280;46212;50.258;19.062;2023-05-22T10:17:53;98546.53;;;23.17;33.46
53340;BME280;46212;50.258;19.062;2023-05-22T10:20:19;98554.41;;;23.32;33.41
53340;BME280;46212;50.258;19.062;2023-05-22T10:22:45;98550.06;;;23.57;33.64
53340;BME280;46212;50.258;19.062;2023-05-22T10:25:11;98548.41;;;23.75;31.10
53340;BME280;46212;50.258;19.062;2023-05-22T10:27:38;98551.53;;;23.71;30.61
53340;BME280;46212;50.258;19.062;2023-05-22T10:32:49;98546.00;;;24.00;32.99
53340;BME280;46212;50.258;19.062;2023-05-22T10:40:39;98535.44;;;24.13;30.83
53340;BME280;46212;50.258;19.062;2023-05-22T10:43:06;98533.53;;;23.95;30.48
53340;BME280;46212;50.258;19.062;2023-05-22T10:45:31;98544.63;;;23.93;31.29
53340;BME280;46212;50.258;19.062;2023-05-22T10:48:08;98551.44;;;23.98;32.67
53340;BME280;46212;50.258;19.062;2023-05-22T10:50:34;98543.72;;;23.98;30.86
53340;BME280;46212;50.258;19.062;2023-05-22T10:55:52;98538.53;;;24.23;31.17
53340;BME280;46212;50.258;19.062;2023-05-22T10:58:33;98538.47;;;24.36;31.19
53340;BME280;46212;50.258;19.062;2023-05-22T11:01:23;98544.25;;;24.51;31.17
53340;BME280;46212;50.258;19.062;2023-05-22T11:08:55;98527.19;;;24.64;30.47
53340;BME280;46212;50.258;19.062;2023-05-22T11:11:23;98525.88;;;24.65;30.89
53340;BME280;46212;50.258;19.062;2023-05-22T11:14:00;98533.59;;;24.65;31.72
53340;BME280;46212;50.258;19.062;2023-05-22T11:16:31;98522.81;;;24.56;30.35
53340;BME280;46212;50.258;19.062;2023-05-22T11:19:04;98519.22;;;24.55;31.52
53340;BME280;46212;50.258;19.062;2023-05-22T11:21:30;98524.69;;;24.53;31.15
53340;BME280;46212;50.258;19.062;2023-05-22T11:23:59;98518.03;;;24.71;31.08
53340;BME280;46212;50.258;19.062;2023-05-22T11:26:25;98519.31;;;24.70;31.19
53340;BME280;46212;50.258;19.062;2023-05-22T11:28:51;98529.91;;;24.98;31.23
53340;BME280;46212;50.258;19.062;2023-05-22T11:31:18;98517.78;;;25.26;30.62
53340;BME280;46212;50.258;19.062;2023-05-22T11:33:45;98513.91;;;25.44;29.96
53340;BME280;46212;50.258;19.062;2023-05-22T11:36:12;98519.38;;;25.42;29.54
53340;BME280;46212;50.258;19.062;2023-05-22T11:38:39;98526.25;;;25.62;30.79
53340;BME280;46212;50.258;19.062;2023-05-22T11:41:07;98515.34;;;25.73;29.73
53340;BME280;46212;50.258;19.062;2023-05-22T11:43:33;98517.47;;;26.03;31.39
53340;BME280;46212;50.258;19.062;2023-05-22T11:46:10;98522.19;;;26.08;30.04
53340;BME280;46212;50.258;19.062;2023-05-22T11:48:40;98519.53;;;25.87;30.48
53340;BME280;46212;50.258;19.062;2023-05-22T11:51:06;98528.94;;;25.82;29.58
53340;BME280;46212;50.258;19.062;2023-05-22T11:53:33;98514.25;;;25.84;29.98
53340;BME280;46212;50.258;19.062;2023-05-22T11:56:03;98517.47;;;25.96;30.01
53340;BME280;46212;50.258;19.062;2023-05-22T11:58:29;98519.66;;;25.67;28.85
53340;BME280;46212;50.258;19.062;2023-05-22T12:01:01;98515.53;;;25.83;28.81
53340;BME280;46212;50.258;19.062;2023-05-22T12:03:28;98517.63;;;25.75;29.05
53340;BME280;46212;50.258;19.062;2023-05-22T12:05:55;98517.28;;;25.94;28.96
53340;BME280;46212;50.258;19.062;2023-05-22T12:08:21;98525.25;;;26.18;29.38
53340;BME280;46212;50.258;19.062;2023-05-22T12:10:48;98516.00;;;26.32;28.50
53340;BME280;46212;50.258;19.062;2023-05-22T12:13:21;98521.66;;;26.32;27.89
53340;BME280;46212;50.258;19.062;2023-05-22T12:15:46;98522.59;;;26.20;26.99
53340;BME280;46212;50.258;19.062;2023-05-22T12:18:12;98525.59;;;26.14;27.48
53340;BME280;46212;50.258;19.062;2023-05-22T12:20:41;98514.41;;;25.86;28.01
53340;BME280;46212;50.258;19.062;2023-05-22T12:23:13;98511.97;;;25.82;28.13
53340;BME280;46212;50.258;19.062;2023-05-22T12:25:44;98520.84;;;25.86;28.47
53340;BME280;46212;50.258;19.062;2023-05-22T12:28:10;98515.19;;;25.86;28.44
53340;BME280;46212;50.258;19.062;2023-05-22T12:30:39;98510.44;;;25.81;29.26
53340;BME280;46212;50.258;19.062;2023-05-22T12:33:11;98502.13;;;25.76;29.83
53340;BME280;46212;50.258;19.062;2023-05-22T12:35:37;98507.78;;;25.76;29.27
53340;BME280;46212;50.258;19.062;2023-05-22T12:38:02;98503.81;;;25.64;28.92
53340;BME280;46212;50.258;19.062;2023-05-22T12:40:28;98488.97;;;25.35;29.35
53340;BME280;46212;50.258;19.062;2023-05-22T12:42:53;98486.34;;;25.37;29.09
53340;BME280;46212;50.258;19.062;2023-05-22T12:45:18;98492.00;;;25.37;29.62
53340;BME280;46212;50.258;19.062;2023-05-22T12:47:44;98487.00;;;25.15;29.21
53340;BME280;46212;50.258;19.062;2023-05-22T12:50:09;98483.00;;;25.03;29.25
53340;BME280;46212;50.258;19.062;2023-05-22T12:52:35;98486.56;;;24.96;29.36
53340;BME280;46212;50.258;19.062;2023-05-22T12:55:00;98493.47;;;24.87;29.53
53340;BME280;46212;50.258;19.062;2023-05-22T12:57:26;98482.13;;;24.79;29.85
53340;BME280;46212;50.258;19.062;2023-05-22T12:59:51;98486.44;;;24.80;30.24
53340;BME280;46212;50.258;19.062;2023-05-22T13:02:16;98488.47;;;24.72;30.01
53340;BME280;46212;50.258;19.062;2023-05-22T13:04:42;98485.72;;;25.16;29.35
53340;BME280;46212;50.258;19.062;2023-05-22T13:07:08;98472.44;;;27.53;26.11
53340;BME280;46212;50.258;19.062;2023-05-22T13:09:33;98471.25;;;29.75;25.15